Time;durP1;ratioP1;P1;durP2;ratioP2;P2;SDS_P1;SDS_P2;PMS_P1;PMS_P2;Temp;Humidity;BMP_temperature;BMP_pressure;BME280_temperature;BME280_humidity;BME280_pressure;Samples;Min_cycle;Max_cycle;Signal;HPM_P1;HPM_P2
2022/02/14 00:01:34;;;;;;;;;;;179.90;1433.60;;;;;;5117294;28;19957;-65
2022/02/14 00:04:03;;;;;;;;;;;179.90;1459.20;;;;;;5117232;28;19904;-64
2022/02/14 00:06:32;;;;;;;;;;;179.90;1459.20;;;;;;5117577;28;19938;-65
2022/02/14 00:08:57;;;;;;;;;;;179.90;1433.60;;;;;;5117350;28;19939;-65
2022/02/14 00:11:26;;;;;;;;;;;179.90;1459.20;;;;;;5117242;28;20400;-67
2022/02/14 00:13:54;;;;;;;;;;;180.00;1433.60;;;;;;5117263;28;19946;-62
2022/02/14 00:16:20;;;;;;;;;;;180.00;1433.60;;;;;;5117078;28;19903;-62
2022/02/14 00:18:48;;;;;;;;;;;180.00;1459.20;;;;;;5098301;28;19938;-62
2022/02/14 00:21:17;;;;;;;;;;;180.00;1433.60;;;;;;5117148;28;19911;-62
2022/02/14 00:23:45;;;;;;;;;;;179.90;1459.20;;;;;;5116995;28;19908;-62
2022/02/14 00:26:14;;;;;;;;;;;180.00;1433.60;;;;;;5116769;28;19910;-66
2022/02/14 00:28:42;;;;;;;;;;;179.90;1459.20;;;;;;5116813;28;19953;-62
2022/02/14 00:31:11;;;;;;;;;;;180.00;1459.20;;;;;;5115900;28;19926;-66
2022/02/14 00:33:40;;;;;;;;;;;180.00;1433.60;;;;;;5098005;28;19918;-66
2022/02/14 00:36:08;;;;;;;;;;;179.80;1459.20;;;;;;5116710;28;19910;-65
2022/02/14 00:38:37;;;;;;;;;;;179.90;1459.20;;;;;;5116818;28;19930;-66
2022/02/14 00:41:06;;;;;;;;;;;179.80;1459.20;;;;;;5116711;28;19907;-62
2022/02/14 00:43:34;;;;;;;;;;;179.90;1459.20;;;;;;5116802;28;19904;-62
2022/02/14 00:46:03;;;;;;;;;;;180.00;1433.60;;;;;;5116796;28;20003;-66
2022/02/14 00:48:31;;;;;;;;;;;179.90;1459.20;;;;;;5116457;28;19911;-62
2022/02/14 00:51:00;;;;;;;;;;;180.00;1459.20;;;;;;5115466;28;19922;-62
2022/02/14 00:53:28;;;;;;;;;;;179.90;1433.60;;;;;;5116495;28;19957;-64
2022/02/14 00:55:54;;;;;;;;;;;179.90;1459.20;;;;;;5115200;28;19908;-64
2022/02/14 00:58:22;;;;;;;;;;;179.80;1459.20;;;;;;5116447;28;19904;-66
2022/02/14 01:00:51;;;;;;;;;;;179.70;1484.80;;;;;;5116416;28;19904;-62
2022/02/14 01:03:19;;;;;;;;;;;179.70;1484.80;;;;;;5116213;28;19917;-61
2022/02/14 01:05:48;;;;;;;;;;;179.60;1484.80;;;;;;5116169;28;20361;-63
2022/02/14 01:08:17;;;;;;;;;;;179.60;1484.80;;;;;;5116254;28;19924;-62
2022/02/14 01:10:45;;;;;;;;;;;179.60;1484.80;;;;;;5115898;28;19922;-63
2022/02/14 01:13:13;;;;;;;;;;;179.50;1484.80;;;;;;5115988;28;19910;-62
2022/02/14 01:15:42;;;;;;;;;;;179.60;1484.80;;;;;;5116094;28;19903;-64
2022/02/14 01:18:11;;;;;;;;;;;179.50;1484.80;;;;;;5115889;28;19904;-65
2022/02/14 01:20:36;;;;;;;;;;;179.50;1484.80;;;;;;5097130;28;20003;-62
2022/02/14 01:23:05;;;;;;;;;;;179.50;1484.80;;;;;;5116026;28;19960;-62
2022/02/14 01:25:33;;;;;;;;;;;179.40;1510.40;;;;;;5115692;28;20273;-62
2022/02/14 01:27:59;;;;;;;;;;;179.50;1510.40;;;;;;5115739;28;19954;-62
2022/02/14 01:30:27;;;;;;;;;;;179.50;1484.80;;;;;;5115619;28;19950;-62
2022/02/14 01:32:58;;;;;;;;;;;179.50;1484.80;;;;;;5115168;28;19923;-67
2022/02/14 01:35:27;;;;;;;;;;;179.50;1484.80;;;;;;5115458;28;19915;-68
2022/02/14 01:37:56;;;;;;;;;;;179.40;1510.40;;;;;;5115875;28;19904;-63
2022/02/14 01:40:25;;;;;;;;;;;179.50;1484.80;;;;;;5115688;28;19911;-66
2022/02/14 01:42:54;;;;;;;;;;;179.50;1484.80;;;;;;5115843;28;19957;-62
2022/02/14 01:45:20;;;;;;;;;;;179.50;1484.80;;;;;;5115651;28;19907;-62
2022/02/14 01:47:48;;;;;;;;;;;179.50;1484.80;;;;;;5115827;28;19990;-63
2022/02/14 01:50:17;;;;;;;;;;;179.50;1484.80;;;;;;5115470;28;20264;-62
2022/02/14 01:52:46;;;;;;;;;;;179.60;1484.80;;;;;;5115434;28;20285;-68
2022/02/14 01:55:16;;;;;;;;;;;179.50;1484.80;;;;;;5115248;28;19911;-61
2022/02/14 01:57:44;;;;;;;;;;;179.60;1484.80;;;;;;5115428;28;19910;-62
2022/02/14 02:00:14;;;;;;;;;;;179.50;1484.80;;;;;;5115225;28;19950;-62
2022/02/14 02:02:42;;;;;;;;;;;179.50;1510.40;;;;;;5114979;28;19904;-66
2022/02/14 02:05:11;;;;;;;;;;;179.50;1484.80;;;;;;5115071;28;19904;-61
2022/02/14 02:07:40;;;;;;;;;;;179.50;1510.40;;;;;;5114884;28;19994;-61
2022/02/14 02:10:09;;;;;;;;;;;179.50;1510.40;;;;;;5114967;28;19987;-66
2022/02/14 02:12:46;;;;;;;;;;;179.50;1484.80;;;;;;5115050;28;19903;-61
2022/02/14 02:15:15;;;;;;;;;;;179.50;1510.40;;;;;;5114445;28;19921;-67
2022/02/14 02:17:44;;;;;;;;;;;179.60;1484.80;;;;;;5115096;28;19904;-65
2022/02/14 02:20:14;;;;;;;;;;;179.50;1510.40;;;;;;5115052;28;19911;-62
2022/02/14 02:22:43;;;;;;;;;;;179.60;1510.40;;;;;;5114967;28;20274;-67
2022/02/14 02:25:13;;;;;;;;;;;179.50;1510.40;;;;;;5114878;28;19904;-62
2022/02/14 02:27:42;;;;;;;;;;;179.50;1510.40;;;;;;5114902;28;19904;-66
2022/02/14 02:30:18;;;;;;;;;;;179.60;1510.40;;;;;;5115456;28;19919;-66
2022/02/14 02:32:46;;;;;;;;;;;179.60;1510.40;;;;;;5114676;28;19915;-66
2022/02/14 02:35:14;;;;;;;;;;;179.60;1510.40;;;;;;5114751;28;19904;-66
2022/02/14 02:37:43;;;;;;;;;;;179.60;1510.40;;;;;;5115359;28;19939;-62
2022/02/14 02:40:12;;;;;;;;;;;179.70;1510.40;;;;;;5114598;28;19908;-66
2022/02/14 02:42:44;;;;;;;;;;;179.60;1510.40;;;;;;5114834;28;19907;-61
2022/02/14 02:45:12;;;;;;;;;;;179.60;1536.00;;;;;;5114552;28;19904;-63
2022/02/14 02:47:41;;;;;;;;;;;179.60;1510.40;;;;;;5114728;28;19931;-61
2022/02/14 02:50:08;;;;;;;;;;;179.60;1536.00;;;;;;5114525;28;19949;-68
2022/02/14 02:52:36;;;;;;;;;;;179.70;1510.40;;;;;;5114654;28;19914;-62
2022/02/14 02:55:05;;;;;;;;;;;179.70;1510.40;;;;;;5114596;28;19912;-68
2022/02/14 02:57:34;;;;;;;;;;;179.60;1536.00;;;;;;5115081;28;19951;-63
2022/02/14 03:00:02;;;;;;;;;;;179.70;1510.40;;;;;;5114603;28;19910;-62
2022/02/14 03:02:31;;;;;;;;;;;179.60;1536.00;;;;;;5114608;28;19910;-70
2022/02/14 03:05:00;;;;;;;;;;;179.70;1510.40;;;;;;5114370;28;19949;-69
2022/02/14 03:07:28;;;;;;;;;;;179.70;1536.00;;;;;;5114827;28;19919;-68
2022/02/14 03:09:57;;;;;;;;;;;179.70;1536.00;;;;;;5114258;28;19935;-62
2022/02/14 03:12:26;;;;;;;;;;;179.70;1536.00;;;;;;5114353;28;20401;-62
2022/02/14 03:14:51;;;;;;;;;;;179.70;1536.00;;;;;;5114923;28;19947;-63
2022/02/14 03:17:21;;;;;;;;;;;179.80;1510.40;;;;;;5114442;28;20346;-64
2022/02/14 03:19:49;;;;;;;;;;;179.80;1536.00;;;;;;5115955;28;19991;-69
2022/02/14 03:22:18;;;;;;;;;;;179.80;1536.00;;;;;;5118256;28;20302;-63
2022/02/14 03:24:46;;;;;;;;;;;179.80;1536.00;;;;;;5118189;28;20341;-70
2022/02/14 03:27:15;;;;;;;;;;;179.80;1536.00;;;;;;5118339;28;19911;-69
2022/02/14 03:29:43;;;;;;;;;;;179.90;1510.40;;;;;;5118538;28;19938;-62
2022/02/14 03:32:12;;;;;;;;;;;179.80;1510.40;;;;;;5117877;28;19922;-62
2022/02/14 03:34:40;;;;;;;;;;;179.80;1510.40;;;;;;5117760;28;19982;-69
2022/02/14 03:37:09;;;;;;;;;;;179.80;1510.40;;;;;;5118088;28;19926;-69
2022/02/14 03:39:35;;;;;;;;;;;179.70;1510.40;;;;;;5118134;28;19911;-63
2022/02/14 03:42:03;;;;;;;;;;;179.80;1510.40;;;;;;5117956;28;20265;-69
2022/02/14 03:44:32;;;;;;;;;;;179.70;1536.00;;;;;;5118261;28;19911;-62
2022/02/14 03:47:00;;;;;;;;;;;179.80;1510.40;;;;;;5117930;28;19926;-63
2022/02/14 03:49:29;;;;;;;;;;;179.70;1510.40;;;;;;5117621;28;19904;-70
2022/02/14 03:51:58;;;;;;;;;;;179.80;1510.40;;;;;;5117796;28;19933;-69
2022/02/14 03:54:26;;;;;;;;;;;179.80;1510.40;;;;;;5117558;28;20357;-61
2022/02/14 03:56:55;;;;;;;;;;;179.60;1536.00;;;;;;5117849;28;19935;-67
2022/02/14 03:59:23;;;;;;;;;;;179.70;1510.40;;;;;;5117610;28;19918;-68
2022/02/14 04:01:52;;;;;;;;;;;179.70;1510.40;;;;;;5117652;28;19951;-63
2022/02/14 04:04:18;;;;;;;;;;;179.70;1510.40;;;;;;5117488;28;19910;-63
2022/02/14 04:06:46;;;;;;;;;;;179.70;1510.40;;;;;;5117365;28;19995;-62
2022/02/14 04:09:15;;;;;;;;;;;179.70;1536.00;;;;;;5117585;28;19907;-63
2022/02/14 04:11:43;;;;;;;;;;;179.70;1510.40;;;;;;5117287;28;19956;-62
2022/02/14 04:14:12;;;;;;;;;;;179.70;1561.60;;;;;;5117285;28;20345;-68
2022/02/14 04:16:40;;;;;;;;;;;179.70;1536.00;;;;;;5117160;28;19904;-63
2022/02/14 04:19:08;;;;;;;;;;;179.80;1587.20;;;;;;5117107;28;19904;-65
2022/02/14 04:21:37;;;;;;;;;;;179.80;1561.60;;;;;;5098379;28;19904;-67
2022/02/14 04:24:05;;;;;;;;;;;179.80;1536.00;;;;;;5117280;28;19930;-63
2022/02/14 04:26:34;;;;;;;;;;;179.80;1536.00;;;;;;5117073;28;20346;-66
2022/02/14 04:29:00;;;;;;;;;;;179.90;1536.00;;;;;;5117043;28;19966;-62
2022/02/14 04:31:28;;;;;;;;;;;179.80;1536.00;;;;;;5116676;28;20401;-68
2022/02/14 04:33:57;;;;;;;;;;;179.90;1536.00;;;;;;5116959;28;19908;-69
2022/02/14 04:36:22;;;;;;;;;;;179.90;1536.00;;;;;;5117102;28;20354;-62
2022/02/14 04:38:51;;;;;;;;;;;179.80;1561.60;;;;;;5116915;28;19910;-67
2022/02/14 04:41:19;;;;;;;;;;;179.90;1536.00;;;;;;5116833;28;19904;-63
2022/02/14 04:43:45;;;;;;;;;;;179.90;1536.00;;;;;;5116722;28;19911;-63
2022/02/14 04:46:14;;;;;;;;;;;180.00;1536.00;;;;;;5116734;28;19904;-68
2022/02/14 04:48:42;;;;;;;;;;;180.00;1536.00;;;;;;5116412;28;19910;-62
2022/02/14 04:51:08;;;;;;;;;;;179.90;1561.60;;;;;;5117099;28;19912;-67
2022/02/14 04:53:37;;;;;;;;;;;180.00;1536.00;;;;;;5116843;28;19987;-68
2022/02/14 04:56:05;;;;;;;;;;;180.00;1561.60;;;;;;5116340;28;19915;-68
2022/02/14 04:58:31;;;;;;;;;;;180.00;1536.00;;;;;;5116608;28;19904;-67
2022/02/14 05:00:59;;;;;;;;;;;180.00;1536.00;;;;;;5116073;28;19903;-69
2022/02/14 05:03:25;;;;;;;;;;;180.00;1536.00;;;;;;5116449;28;19944;-69
2022/02/14 05:05:54;;;;;;;;;;;180.10;1536.00;;;;;;5097715;28;20287;-68
2022/02/14 05:08:22;;;;;;;;;;;180.00;1561.60;;;;;;5116327;28;19903;-69
2022/02/14 05:10:51;;;;;;;;;;;180.00;1536.00;;;;;;5115929;28;19912;-67
2022/02/14 05:13:19;;;;;;;;;;;180.00;1536.00;;;;;;5116307;28;19998;-62
2022/02/14 05:15:48;;;;;;;;;;;180.00;1536.00;;;;;;5116247;28;19930;-63
2022/02/14 05:18:16;;;;;;;;;;;180.00;1536.00;;;;;;5116162;28;19951;-64
2022/02/14 05:20:45;;;;;;;;;;;180.00;1536.00;;;;;;5116172;28;19914;-69
2022/02/14 05:23:13;;;;;;;;;;;180.10;1536.00;;;;;;5115929;28;20319;-69
2022/02/14 05:25:42;;;;;;;;;;;180.00;1561.60;;;;;;5115920;28;19904;-65
2022/02/14 05:28:09;;;;;;;;;;;180.00;1536.00;;;;;;5115657;28;20380;-63
2022/02/14 05:30:38;;;;;;;;;;;180.00;1561.60;;;;;;5115880;28;19982;-62
2022/02/14 05:33:06;;;;;;;;;;;179.90;1561.60;;;;;;5115412;28;19926;-62
2022/02/14 05:35:35;;;;;;;;;;;180.00;1561.60;;;;;;5115746;28;19903;-68
2022/02/14 05:38:03;;;;;;;;;;;179.90;1561.60;;;;;;5115997;28;19910;-70
2022/02/14 05:40:32;;;;;;;;;;;180.00;1561.60;;;;;;5115483;28;19911;-62
2022/02/14 05:43:00;;;;;;;;;;;180.00;1561.60;;;;;;5115022;28;19942;-62
2022/02/14 05:45:29;;;;;;;;;;;180.00;1561.60;;;;;;5115566;28;19912;-69
2022/02/14 05:47:58;;;;;;;;;;;180.00;1561.60;;;;;;5115206;28;19904;-69
2022/02/14 05:50:26;;;;;;;;;;;180.10;1561.60;;;;;;5115327;28;20022;-68
2022/02/14 05:52:52;;;;;;;;;;;180.10;1561.60;;;;;;5115381;28;20270;-68
2022/02/14 05:55:20;;;;;;;;;;;180.10;1561.60;;;;;;5115061;28;19910;-65
2022/02/14 05:57:49;;;;;;;;;;;180.10;1561.60;;;;;;5114994;28;19904;-69
2022/02/14 06:00:18;;;;;;;;;;;180.10;1536.00;;;;;;5114965;28;19908;-63
2022/02/14 06:02:47;;;;;;;;;;;180.10;1536.00;;;;;;5115158;28;19911;-63
2022/02/14 06:05:16;;;;;;;;;;;180.10;1536.00;;;;;;5115084;28;19908;-62
2022/02/14 06:07:45;;;;;;;;;;;180.00;1561.60;;;;;;5115104;28;19903;-62
2022/02/14 06:10:12;;;;;;;;;;;180.10;1536.00;;;;;;5114820;28;19904;-67
2022/02/14 06:12:40;;;;;;;;;;;180.10;1561.60;;;;;;5115046;28;19904;-69
2022/02/14 06:15:09;;;;;;;;;;;180.00;1561.60;;;;;;5114947;28;19987;-63
2022/02/14 06:17:38;;;;;;;;;;;180.10;1536.00;;;;;;5114754;28;19904;-62
2022/02/14 06:20:07;;;;;;;;;;;180.00;1561.60;;;;;;5114738;28;19995;-63
2022/02/14 06:22:35;;;;;;;;;;;180.00;1561.60;;;;;;5114851;28;19911;-62
2022/02/14 06:25:04;;;;;;;;;;;180.00;1561.60;;;;;;5114632;28;19907;-68
2022/02/14 06:27:33;;;;;;;;;;;179.90;1561.60;;;;;;5114533;28;19904;-63
2022/02/14 06:30:02;;;;;;;;;;;179.90;1561.60;;;;;;5114770;28;19903;-62
2022/02/14 06:32:32;;;;;;;;;;;179.90;1561.60;;;;;;5114576;28;19915;-62
2022/02/14 06:34:58;;;;;;;;;;;180.00;1561.60;;;;;;5114622;28;19994;-69
2022/02/14 06:37:26;;;;;;;;;;;180.00;1587.20;;;;;;5114570;28;19939;-63
2022/02/14 06:39:54;;;;;;;;;;;180.10;1561.60;;;;;;5114597;28;19904;-63
2022/02/14 06:42:20;;;;;;;;;;;180.10;1561.60;;;;;;5115153;28;19903;-63
2022/02/14 06:44:49;;;;;;;;;;;180.10;1587.20;;;;;;5114624;28;19904;-69
2022/02/14 06:47:17;;;;;;;;;;;204.80;1561.60;;;;;;5114784;28;20417;-69
2022/02/14 06:49:42;;;;;;;;;;;204.80;1587.20;;;;;;5114220;28;19907;-64
2022/02/14 06:52:11;;;;;;;;;;;204.80;1587.20;;;;;;5114430;28;19934;-69
2022/02/14 06:54:40;;;;;;;;;;;204.80;1587.20;;;;;;5115809;28;19910;-65
2022/02/14 06:57:05;;;;;;;;;;;204.80;1587.20;;;;;;5118888;28;19904;-63
2022/02/14 06:59:34;;;;;;;;;;;204.80;1587.20;;;;;;5118594;28;19903;-69
2022/02/14 07:02:02;;;;;;;;;;;204.90;1587.20;;;;;;5118450;28;20329;-63
2022/02/14 07:04:31;;;;;;;;;;;204.90;1587.20;;;;;;5118218;28;19931;-71
2022/02/14 07:06:59;;;;;;;;;;;204.90;1587.20;;;;;;5118482;28;19904;-71
2022/02/14 07:09:28;;;;;;;;;;;205.00;1587.20;;;;;;5118688;28;19904;-70
2022/02/14 07:11:57;;;;;;;;;;;205.00;1587.20;;;;;;5118392;28;19980;-68
2022/02/14 07:14:25;;;;;;;;;;;205.00;1587.20;;;;;;5118192;28;19907;-62
2022/02/14 07:16:54;;;;;;;;;;;205.00;1612.80;;;;;;5118516;28;20361;-69
2022/02/14 07:19:23;;;;;;;;;;;205.00;1612.80;;;;;;5118035;28;20353;-69
2022/02/14 07:21:51;;;;;;;;;;;205.00;1612.80;;;;;;5118099;28;20411;-68
2022/02/14 07:24:20;;;;;;;;;;;205.00;1612.80;;;;;;5099441;28;20473;-69
2022/02/14 07:26:48;;;;;;;;;;;205.00;1612.80;;;;;;5118134;28;19931;-69
2022/02/14 07:29:17;;;;;;;;;;;205.10;1612.80;;;;;;5118201;28;19994;-70
2022/02/14 07:31:45;;;;;;;;;;;205.20;1612.80;;;;;;5117961;28;20297;-63
2022/02/14 07:34:14;;;;;;;;;;;205.20;1612.80;;;;;;5117992;28;19911;-62
2022/02/14 07:36:40;;;;;;;;;;;205.20;1612.80;;;;;;5118501;28;20018;-62
2022/02/14 07:39:11;;;;;;;;;;;205.20;1612.80;;;;;;5117771;28;20373;-69
2022/02/14 07:41:40;;;;;;;;;;;205.30;1612.80;;;;;;5118154;28;19904;-62
2022/02/14 07:44:07;;;;;;;;;;;205.30;1638.40;;;;;;5109534;28;19908;-65
2022/02/14 07:46:33;;;;;;;;;;;205.40;1638.40;;;;;;5103651;28;19912;-67
2022/02/14 07:48:58;;;;;;;;;;;205.40;1638.40;;;;;;5106201;28;19904;-64
2022/02/14 07:51:25;;;;;;;;;;;205.40;1638.40;;;;;;5106493;28;20004;-67
2022/02/14 07:53:51;;;;;;;;;;;205.50;1638.40;;;;;;5107811;28;19904;-68
2022/02/14 07:56:17;;;;;;;;;;;205.60;1638.40;;;;;;5106059;28;19904;-64
2022/02/14 07:58:43;;;;;;;;;;;205.60;1638.40;;;;;;5107158;28;19911;-67
2022/02/14 08:01:08;;;;;;;;;;;205.70;1638.40;;;;;;5107547;28;20374;-67
2022/02/14 08:03:35;;;;;;;;;;;205.70;1638.40;;;;;;5108413;28;19949;-66
2022/02/14 08:06:03;;;;;;;;;;;230.40;1638.40;;;;;;5116634;28;19910;-69
2022/02/14 08:08:29;;;;;;;;;;;230.40;1638.40;;;;;;5113806;28;19915;-64
2022/02/14 08:10:55;;;;;;;;;;;230.50;1638.40;;;;;;5105258;28;20247;-69
2022/02/14 08:13:21;;;;;;;;;;;230.60;1612.80;;;;;;5106810;28;19904;-65
2022/02/14 08:15:47;;;;;;;;;;;230.70;1612.80;;;;;;5106814;28;19904;-69
2022/02/14 08:18:16;;;;;;;;;;;230.70;1612.80;;;;;;5105186;28;19935;-68
2022/02/14 08:20:42;;;;;;;;;;;230.80;1612.80;;;;;;5106707;28;20286;-64
2022/02/14 08:23:10;;;;;;;;;;;230.90;1612.80;;;;;;5107055;28;19987;-69
2022/02/14 08:25:37;;;;;;;;;;;231.00;1587.20;;;;;;5105148;28;19911;-69
2022/02/14 08:28:07;;;;;;;;;;;231.00;1612.80;;;;;;5106292;28;20002;-65
2022/02/14 08:30:34;;;;;;;;;;;231.10;1587.20;;;;;;5103912;28;19931;-65
2022/02/14 08:33:05;;;;;;;;;;;231.20;1612.80;;;;;;5105460;28;19970;-67
2022/02/14 08:35:32;;;;;;;;;;;231.30;1587.20;;;;;;5106109;28;19908;-65
2022/02/14 08:38:01;;;;;;;;;;;256.00;1561.60;;;;;;5106751;28;20293;-67
2022/02/14 08:40:27;;;;;;;;;;;256.10;1561.60;;;;;;5104501;28;19911;-68
2022/02/14 08:42:54;;;;;;;;;;;256.30;1536.00;;;;;;5106105;28;19934;-68
2022/02/14 08:45:20;;;;;;;;;;;256.40;1536.00;;;;;;5101383;28;19904;-64
2022/02/14 08:47:49;;;;;;;;;;;256.50;1536.00;;;;;;5105007;28;19919;-64
2022/02/14 08:50:16;;;;;;;;;;;256.60;1510.40;;;;;;5106333;28;20296;-64
2022/02/14 08:52:45;;;;;;;;;;;256.70;1510.40;;;;;;5105513;28;19930;-65
2022/02/14 08:55:15;;;;;;;;;;;256.90;1510.40;;;;;;5105382;28;19930;-65
2022/02/14 08:57:46;;;;;;;;;;;281.60;1510.40;;;;;;5101273;28;19904;-63
2022/02/14 09:00:12;;;;;;;;;;;281.60;1510.40;;;;;;5103894;28;20417;-66
2022/02/14 09:02:38;;;;;;;;;;;281.80;1536.00;;;;;;5105537;28;19936;-64
2022/02/14 09:05:07;;;;;;;;;;;281.90;1484.80;;;;;;5104151;28;19953;-66
2022/02/14 09:07:33;;;;;;;;;;;282.00;1484.80;;;;;;5085370;28;19915;-67
2022/02/14 09:10:03;;;;;;;;;;;282.10;1459.20;;;;;;5103384;28;20008;-68
2022/02/14 09:12:30;;;;;;;;;;;282.10;1484.80;;;;;;5103363;28;20026;-64
2022/02/14 09:14:58;;;;;;;;;;;282.20;1484.80;;;;;;5084892;28;19910;-65
2022/02/14 09:17:27;;;;;;;;;;;282.20;1459.20;;;;;;5103681;28;20285;-63
2022/02/14 09:19:55;;;;;;;;;;;282.30;1433.60;;;;;;5105286;28;19907;-68
2022/02/14 09:22:22;;;;;;;;;;;282.30;1433.60;;;;;;5104043;28;19904;-64
2022/02/14 09:24:48;;;;;;;;;;;282.30;1433.60;;;;;;5085017;28;20270;-64
2022/02/14 09:27:14;;;;;;;;;;;282.30;1433.60;;;;;;5105017;28;20369;-63
2022/02/14 09:29:42;;;;;;;;;;;282.40;1433.60;;;;;;5105275;28;19903;-65
2022/02/14 09:32:09;;;;;;;;;;;282.50;1433.60;;;;;;5104639;28;19923;-65
2022/02/14 09:34:38;;;;;;;;;;;282.50;1433.60;;;;;;5103029;28;19904;-68
2022/02/14 09:37:03;;;;;;;;;;;307.20;1459.20;;;;;;5103886;28;19912;-67
2022/02/14 09:39:31;;;;;;;;;;;307.30;1459.20;;;;;;5104772;28;19904;-64
2022/02/14 09:42:02;;;;;;;;;;;307.40;1459.20;;;;;;5100122;28;19908;-63
2022/02/14 09:44:29;;;;;;;;;;;307.50;1433.60;;;;;;5103104;28;19911;-67
2022/02/14 09:46:55;;;;;;;;;;;307.50;1459.20;;;;;;5104751;28;20350;-65
2022/02/14 09:49:24;;;;;;;;;;;307.60;1433.60;;;;;;5103407;28;20025;-66
2022/02/14 09:51:59;;;;;;;;;;;307.60;1433.60;;;;;;5103095;28;19919;-64
2022/02/14 09:54:51;;;;;;;;;;;307.70;1408.00;;;;;;5096434;28;19962;-62
2022/02/14 09:57:18;;;;;;;;;;;307.70;1433.60;;;;;;5075624;28;19954;-65
2022/02/14 09:59:44;;;;;;;;;;;307.80;1408.00;;;;;;5103096;28;20364;-65
2022/02/14 10:02:22;;;;;;;;;;;307.80;1433.60;;;;;;5103025;28;19911;-64
2022/02/14 10:05:06;;;;;;;;;;;307.90;1408.00;;;;;;5102743;28;19927;-67
2022/02/14 10:07:44;;;;;;;;;;;308.00;1408.00;;;;;;5103712;28;19994;-71
2022/02/14 10:10:15;;;;;;;;;;;308.10;1382.40;;;;;;5104160;28;19911;-68
2022/02/14 10:12:45;;;;;;;;;;;332.80;1408.00;;;;;;5100982;28;19914;-72
2022/02/14 10:15:12;;;;;;;;;;;332.80;1408.00;;;;;;5102360;28;20018;-64
2022/02/14 10:17:41;;;;;;;;;;;332.80;1382.40;;;;;;5104126;28;20281;-65
2022/02/14 10:20:08;;;;;;;;;;;332.90;1382.40;;;;;;5093780;28;19904;-68
2022/02/14 10:22:50;;;;;;;;;;;333.00;1382.40;;;;;;5103887;28;19915;-64
2022/02/14 10:25:31;;;;;;;;;;;333.00;1382.40;;;;;;5103700;28;20254;-68
2022/02/14 10:28:12;;;;;;;;;;;333.10;1382.40;;;;;;5099002;28;19943;-71
2022/02/14 10:30:53;;;;;;;;;;;333.20;1382.40;;;;;;5099754;28;19911;-73
2022/02/14 10:33:18;;;;;;;;;;;333.30;1382.40;;;;;;5100022;28;20373;-73
2022/02/14 10:35:48;;;;;;;;;;;333.30;1356.80;;;;;;5093024;28;19904;-71
2022/02/14 10:38:13;;;;;;;;;;;333.40;1356.80;;;;;;5114717;28;19960;-71
2022/02/14 10:40:42;;;;;;;;;;;333.50;1331.20;;;;;;5114459;28;19908;-70
2022/02/14 10:43:07;;;;;;;;;;;333.50;1331.20;;;;;;5114173;28;20428;-71
2022/02/14 10:45:34;;;;;;;;;;;333.50;1331.20;;;;;;5114518;28;19954;-71
2022/02/14 10:48:03;;;;;;;;;;;333.60;1305.60;;;;;;5114496;28;20357;-72
2022/02/14 10:50:28;;;;;;;;;;;333.70;1305.60;;;;;;5114244;28;19903;-72
2022/02/14 10:52:58;;;;;;;;;;;333.70;1280.00;;;;;;5095774;28;19998;-72
2022/02/14 10:55:30;;;;;;;;;;;358.40;1305.60;;;;;;5114373;28;19903;-72
2022/02/14 10:57:58;;;;;;;;;;;358.40;1280.00;;;;;;5114157;28;20277;-72
2022/02/14 11:00:36;;;;;;;;;;;358.40;1280.00;;;;;;5115023;28;19903;-73
2022/02/14 11:03:06;;;;;;;;;;;358.50;1280.00;;;;;;5114659;28;19970;-73
2022/02/14 11:05:32;;;;;;;;;;;358.50;1280.00;;;;;;5086478;28;19958;-73
2022/02/14 11:07:58;;;;;;;;;;;358.60;1280.00;;;;;;5103521;28;19903;-73
2022/02/14 11:10:23;;;;;;;;;;;358.70;1254.40;;;;;;5102009;28;19957;-69
2022/02/14 11:12:52;;;;;;;;;;;358.70;1254.40;;;;;;5101951;28;20291;-73
2022/02/14 11:15:17;;;;;;;;;;;358.80;1254.40;;;;;;5113031;28;19904;-72
2022/02/14 11:17:45;;;;;;;;;;;358.90;1254.40;;;;;;5114210;28;19968;-72
2022/02/14 11:20:10;;;;;;;;;;;358.90;1254.40;;;;;;5100967;28;19934;-71
2022/02/14 11:22:37;;;;;;;;;;;359.00;1228.80;;;;;;5102831;28;19904;-70
2022/02/14 11:25:09;;;;;;;;;;;359.10;1228.80;;;;;;5102691;28;19916;-73
2022/02/14 11:27:59;;;;;;;;;;;359.10;1203.20;;;;;;5099220;28;19998;-72
2022/02/14 11:30:27;;;;;;;;;;;359.20;1203.20;;;;;;5102180;28;20327;-72
2022/02/14 11:33:22;;;;;;;;;;;359.20;1203.20;;;;;;5100320;28;19927;-65
2022/02/14 11:36:06;;;;;;;;;;;359.30;1203.20;;;;;;5099364;28;19957;-72
2022/02/14 11:38:50;;;;;;;;;;;359.30;1203.20;;;;;;5093545;28;19911;-73
2022/02/14 11:41:24;;;;;;;;;;;359.30;1177.60;;;;;;5102026;28;20007;-73
2022/02/14 11:43:49;;;;;;;;;;;359.30;1177.60;;;;;;5117383;28;19911;-72
2022/02/14 11:46:18;;;;;;;;;;;359.30;1177.60;;;;;;5117614;28;19904;-71
2022/02/14 11:49:02;;;;;;;;;;;384.00;1177.60;;;;;;5117120;28;19947;-69
2022/02/14 11:51:43;;;;;;;;;;;384.00;1152.00;;;;;;5117292;28;19919;-68
2022/02/14 11:54:32;;;;;;;;;;;384.00;1177.60;;;;;;5117432;28;19903;-72
2022/02/14 11:57:10;;;;;;;;;;;384.00;1177.60;;;;;;5034342;28;19905;-72
2022/02/14 11:59:36;;;;;;;;;;;384.00;1152.00;;;;;;5034526;28;19911;-72
2022/02/14 12:02:02;;;;;;;;;;;359.30;1177.60;;;;;;5034670;28;20003;-72
2022/02/14 12:04:31;;;;;;;;;;;359.30;1177.60;;;;;;5034224;28;20433;-73
2022/02/14 12:07:25;;;;;;;;;;;359.20;1177.60;;;;;;5034377;28;19966;-72
2022/02/14 12:10:11;;;;;;;;;;;359.20;1177.60;;;;;;5032186;28;19952;-72
2022/02/14 12:12:46;;;;;;;;;;;359.10;1203.20;;;;;;5034051;28;19912;-70
2022/02/14 12:20:34;;;;;;;;;;;359.10;1177.60;;;;;;5034314;28;19909;-72
2022/02/14 12:21:11;;;;;;;;;;;359.10;1177.60;;;;;;5034485;28;20426;-62
2022/02/14 12:23:38;;;;;;;;;;;359.10;1203.20;;;;;;5034681;28;19940;-70
2022/02/14 12:26:07;;;;;;;;;;;359.10;1177.60;;;;;;5034118;28;20012;-72
2022/02/14 12:28:34;;;;;;;;;;;359.10;1203.20;;;;;;5034192;28;19905;-72
2022/02/14 12:31:01;;;;;;;;;;;359.10;1177.60;;;;;;5034273;28;19913;-72
2022/02/14 12:33:27;;;;;;;;;;;359.10;1177.60;;;;;;5057478;28;19915;-72
2022/02/14 12:35:54;;;;;;;;;;;359.10;1177.60;;;;;;5116843;28;19904;-72
2022/02/14 12:38:23;;;;;;;;;;;359.10;1152.00;;;;;;5116553;28;19904;-72
2022/02/14 12:40:59;;;;;;;;;;;359.10;1152.00;;;;;;5116470;28;19903;-71
2022/02/14 12:43:34;;;;;;;;;;;359.00;1177.60;;;;;;5116674;28;19907;-71
2022/02/14 12:46:01;;;;;;;;;;;359.00;1152.00;;;;;;5116801;28;19904;-71
2022/02/14 12:48:27;;;;;;;;;;;359.00;1177.60;;;;;;5116285;28;19904;-61
2022/02/14 12:50:52;;;;;;;;;;;359.00;1177.60;;;;;;5116607;28;19912;-62
2022/02/14 12:53:18;;;;;;;;;;;358.90;1177.60;;;;;;5116528;28;20016;-62
2022/02/14 12:55:44;;;;;;;;;;;359.00;1177.60;;;;;;5116181;28;19903;-61
2022/02/14 12:58:11;;;;;;;;;;;359.00;1177.60;;;;;;5116411;28;19922;-70
2022/02/14 13:00:42;;;;;;;;;;;358.90;1177.60;;;;;;5116546;28;19904;-61
2022/02/14 13:03:12;;;;;;;;;;;358.90;1177.60;;;;;;5116332;28;19948;-61
2022/02/14 13:05:38;;;;;;;;;;;359.00;1152.00;;;;;;5101380;28;19904;-61
2022/02/14 13:08:25;;;;;;;;;;;359.00;1152.00;;;;;;5098410;28;20015;-62
2022/02/14 13:10:51;;;;;;;;;;;359.00;1152.00;;;;;;5095374;28;20007;-61
2022/02/14 13:13:30;;;;;;;;;;;359.00;1126.40;;;;;;5105543;28;19920;-62
2022/02/14 13:15:57;;;;;;;;;;;359.00;1152.00;;;;;;5099157;28;19911;-61
2022/02/14 13:18:23;;;;;;;;;;;358.90;1177.60;;;;;;5102366;28;19916;-61
2022/02/14 13:20:56;;;;;;;;;;;358.90;1152.00;;;;;;5091670;28;19927;-72
2022/02/14 13:23:22;;;;;;;;;;;359.00;1152.00;;;;;;5093925;28;19908;-69
2022/02/14 13:25:49;;;;;;;;;;;359.10;1126.40;;;;;;5093783;28;19958;-61
2022/02/14 13:28:15;;;;;;;;;;;359.10;1126.40;;;;;;5094191;28;19964;-61
2022/02/14 13:30:42;;;;;;;;;;;359.10;1126.40;;;;;;5093690;28;20358;-61
2022/02/14 13:33:18;;;;;;;;;;;359.10;1126.40;;;;;;5093354;28;20366;-61
2022/02/14 13:35:44;;;;;;;;;;;359.10;1100.80;;;;;;5093657;28;19912;-68
2022/02/14 13:38:10;;;;;;;;;;;359.20;1100.80;;;;;;5093669;28;20007;-63
2022/02/14 13:40:39;;;;;;;;;;;359.20;1075.20;;;;;;5093365;28;19949;-61
2022/02/14 13:43:15;;;;;;;;;;;359.20;1100.80;;;;;;5093343;28;19904;-61
2022/02/14 13:45:49;;;;;;;;;;;359.20;1075.20;;;;;;5102185;28;19992;-61
2022/02/14 13:48:23;;;;;;;;;;;359.10;1075.20;;;;;;5102773;28;20277;-66
2022/02/14 13:50:59;;;;;;;;;;;359.10;1075.20;;;;;;5101153;28;19912;-73
2022/02/14 13:53:29;;;;;;;;;;;359.10;1075.20;;;;;;5100083;28;19904;-72
2022/02/14 13:56:08;;;;;;;;;;;359.10;1075.20;;;;;;5103196;28;20357;-66